Time;durP1;ratioP1;P1;durP2;ratioP2;P2;SDS_P1;SDS_P2;PMS_P1;PMS_P2;Temp;Humidity;BMP_temperature;BMP_pressure;BME280_temperature;BME280_humidity;BME280_pressure;Samples;Min_cycle;Max_cycle;Signal;HPM_P1;HPM_P2
2023/08/29 00:01:31;;;;;;;;;;;;;;;14.51;92.61;101223.75;5039715;28;1221;-83
2023/08/29 00:03:58;;;;;;;;;;;;;;;14.50;92.26;101216.88;5042895;28;1902;-83
2023/08/29 00:06:23;;;;;;;;;;;;;;;14.51;92.45;101214.16;5042655;28;1142;-83
2023/08/29 00:08:48;;;;;;;;;;;;;;;14.47;92.59;101206.72;5036457;28;1200;-83
2023/08/29 00:11:13;;;;;;;;;;;;;;;14.45;92.20;101206.84;5044346;28;1383;-82
2023/08/29 00:13:39;;;;;;;;;;;;;;;14.43;92.33;101200.09;5044788;28;1057;-83
2023/08/29 00:16:05;;;;;;;;;;;;;;;14.43;92.56;101205.31;5048280;28;1009;-81
2023/08/29 00:18:30;;;;;;;;;;;;;;;14.42;92.53;101204.50;5055619;28;1211;-82
2023/08/29 00:20:55;;;;;;;;;;;;;;;14.42;92.66;101209.72;5047517;28;1032;-83
2023/08/29 00:23:20;;;;;;;;;;;;;;;14.41;92.68;101197.66;5048478;28;1972;-83
2023/08/29 00:25:48;;;;;;;;;;;;;;;14.42;92.52;101198.47;5048536;28;1377;-81
2023/08/29 00:28:13;;;;;;;;;;;;;;;14.40;92.75;101182.13;5044564;28;1401;-83
2023/08/29 00:30:39;;;;;;;;;;;;;;;14.38;92.78;101181.44;5051726;28;1262;-83
2023/08/29 00:33:05;;;;;;;;;;;;;;;14.37;92.43;101179.81;5048162;28;1083;-83
2023/08/29 00:35:30;;;;;;;;;;;;;;;14.33;92.89;101180.06;5039245;28;1301;-83
2023/08/29 00:37:55;;;;;;;;;;;;;;;14.31;93.13;101176.78;5046729;28;1055;-82
2023/08/29 00:40:21;;;;;;;;;;;;;;;14.28;94.01;101177.09;5054902;28;1336;-83
2023/08/29 00:42:47;;;;;;;;;;;;;;;14.26;93.46;101179.00;5050286;28;1198;-82
2023/08/29 00:45:12;;;;;;;;;;;;;;;14.23;93.32;101184.50;5050279;28;1882;-82
2023/08/29 00:47:37;;;;;;;;;;;;;;;14.22;93.71;101180.25;5052182;28;1260;-82
2023/08/29 00:50:03;;;;;;;;;;;;;;;14.20;93.83;101174.34;5050042;28;1198;-83
2023/08/29 00:52:28;;;;;;;;;;;;;;;14.18;93.77;101178.06;5036380;28;1269;-83
2023/08/29 00:54:53;;;;;;;;;;;;;;;14.13;93.79;101173.25;5045737;28;1223;-79
2023/08/29 00:57:21;;;;;;;;;;;;;;;14.12;93.88;101181.22;5048172;28;1442;-82
2023/08/29 00:59:47;;;;;;;;;;;;;;;14.11;94.20;101169.97;5054780;28;1240;-82
2023/08/29 01:02:12;;;;;;;;;;;;;;;14.10;94.32;101163.09;5047178;28;1227;-83
2023/08/29 01:04:37;;;;;;;;;;;;;;;14.06;94.40;101172.16;5045968;28;1906;-82
2023/08/29 01:07:03;;;;;;;;;;;;;;;14.05;94.15;101165.31;5031515;28;1534;-83
2023/08/29 01:09:28;;;;;;;;;;;;;;;14.05;94.27;101178.34;5047005;28;1232;-81
2023/08/29 01:12:12;;;;;;;;;;;;;;;14.05;94.24;101175.75;5048022;28;1193;-80
2023/08/29 01:14:47;;;;;;;;;;;;;;;14.03;94.54;101172.44;5030209;28;1250;-83
2023/08/29 01:17:18;;;;;;;;;;;;;;;13.97;94.59;101171.19;5048473;28;1130;-82
2023/08/29 01:19:48;;;;;;;;;;;;;;;13.97;94.45;101173.00;5044880;28;1066;-83
2023/08/29 01:22:26;;;;;;;;;;;;;;;13.95;94.55;101175.75;5045572;28;1072;-83
2023/08/29 01:24:54;;;;;;;;;;;;;;;13.94;94.57;101178.50;5047523;28;1907;-81
2023/08/29 01:27:20;;;;;;;;;;;;;;;13.92;94.84;101185.63;5045943;28;1155;-80
2023/08/29 01:29:46;;;;;;;;;;;;;;;13.91;94.98;101178.75;5038208;28;1600;-83
2023/08/29 01:32:12;;;;;;;;;;;;;;;13.90;95.46;101177.13;5032940;28;1388;-82
2023/08/29 01:34:38;;;;;;;;;;;;;;;13.87;95.11;101167.78;5048896;28;1066;-83
2023/08/29 01:37:03;;;;;;;;;;;;;;;13.86;95.12;101175.75;5049408;28;1819;-83
2023/08/29 01:39:29;;;;;;;;;;;;;;;13.82;95.80;101175.22;5048513;28;1155;-82
2023/08/29 01:41:54;;;;;;;;;;;;;;;13.81;95.71;101178.75;5037320;28;1177;-83
2023/08/29 01:44:19;;;;;;;;;;;;;;;13.79;95.76;101176.28;5048765;28;1941;-82
2023/08/29 01:46:44;;;;;;;;;;;;;;;13.76;95.64;101173.13;5037677;28;1229;-83
2023/08/29 01:49:09;;;;;;;;;;;;;;;13.75;95.81;101185.34;5045052;28;1338;-83
2023/08/29 01:51:35;;;;;;;;;;;;;;;13.74;96.14;101194.13;5049185;28;1129;-83
2023/08/29 01:54:00;;;;;;;;;;;;;;;13.74;95.54;101191.53;5031999;28;1168;-83
2023/08/29 01:56:27;;;;;;;;;;;;;;;13.73;95.88;101187.28;5043212;28;1193;-82
2023/08/29 01:58:56;;;;;;;;;;;;;;;13.73;95.91;101187.28;5043952;28;1185;-83
2023/08/29 02:01:21;;;;;;;;;;;;;;;13.73;95.92;101187.28;5048210;28;1216;-82
2023/08/29 02:03:47;;;;;;;;;;;;;;;13.72;95.93;101196.06;5049130;28;1902;-84
2023/08/29 02:06:13;;;;;;;;;;;;;;;13.71;96.19;101197.03;5048355;28;1185;-81
2023/08/29 02:08:38;;;;;;;;;;;;;;;13.73;96.22;101197.69;5047170;28;1138;-83
2023/08/29 02:11:03;;;;;;;;;;;;;;;13.72;96.28;101196.06;5038113;28;1515;-83
2023/08/29 02:13:28;;;;;;;;;;;;;;;13.71;96.42;101202.25;5049666;28;1390;-82
2023/08/29 02:15:54;;;;;;;;;;;;;;;13.72;96.59;101201.28;5043684;28;1220;-83
2023/08/29 02:18:19;;;;;;;;;;;;;;;13.71;96.57;101198.81;5044753;28;1548;-82
2023/08/29 02:20:44;;;;;;;;;;;;;;;13.68;96.42;101189.47;5045113;28;1170;-82
2023/08/29 02:23:09;;;;;;;;;;;;;;;13.64;96.57;101203.72;5040892;28;1152;-83
2023/08/29 02:25:34;;;;;;;;;;;;;;;13.60;96.60;101202.38;5042556;28;1894;-83
2023/08/29 02:28:00;;;;;;;;;;;;;;;13.57;96.94;101210.44;5030218;28;1541;-83
2023/08/29 02:30:25;;;;;;;;;;;;;;;13.60;97.05;101212.78;5045078;28;1129;-84
2023/08/29 02:32:50;;;;;;;;;;;;;;;13.62;96.83;101215.25;5048302;28;1028;-83
2023/08/29 02:35:18;;;;;;;;;;;;;;;13.64;96.94;101214.16;5030298;28;1341;-82
2023/08/29 02:37:43;;;;;;;;;;;;;;;13.63;96.93;101220.31;5043582;28;1188;-83
2023/08/29 02:40:09;;;;;;;;;;;;;;;13.60;96.91;101218.00;5046942;28;1434;-83
2023/08/29 02:42:34;;;;;;;;;;;;;;;13.55;96.82;101222.78;5045677;28;940;-83
2023/08/29 02:45:00;;;;;;;;;;;;;;;13.52;96.94;101225.66;5044695;28;1910;-82
2023/08/29 02:47:25;;;;;;;;;;;;;;;13.53;96.65;101227.28;5045912;28;1482;-84
2023/08/29 02:49:50;;;;;;;;;;;;;;;13.54;96.93;101229.78;5051107;28;1323;-83
2023/08/29 02:52:15;;;;;;;;;;;;;;;13.54;96.71;101235.00;5026727;28;1331;-84
2023/08/29 02:54:40;;;;;;;;;;;;;;;13.52;96.83;101236.06;5043696;28;1179;-82
2023/08/29 02:57:06;;;;;;;;;;;;;;;13.50;96.84;101230.19;5032639;28;1165;-83
2023/08/29 02:59:31;;;;;;;;;;;;;;;13.44;96.94;101228.13;5045955;28;1443;-83
2023/08/29 03:01:57;;;;;;;;;;;;;;;13.40;96.92;101231.94;5037364;28;1471;-83
2023/08/29 03:04:23;;;;;;;;;;;;;;;13.35;97.18;101234.13;5022785;28;1977;-83
2023/08/29 03:06:50;;;;;;;;;;;;;;;13.32;97.00;101231.78;5046051;28;1098;-83
2023/08/29 03:09:16;;;;;;;;;;;;;;;13.27;97.56;101238.22;5041924;28;1188;-82
2023/08/29 03:11:41;;;;;;;;;;;;;;;13.23;97.18;101226.41;5045211;28;1079;-82
2023/08/29 03:14:06;;;;;;;;;;;;;;;13.24;97.32;101227.22;5044263;28;1088;-82
2023/08/29 03:16:31;;;;;;;;;;;;;;;13.23;97.22;101221.19;5040549;28;1343;-82
2023/08/29 03:18:57;;;;;;;;;;;;;;;13.22;97.09;101227.38;5028818;28;1168;-83
2023/08/29 03:21:22;;;;;;;;;;;;;;;13.22;97.29;101229.97;5043442;28;1021;-84
2023/08/29 03:23:47;;;;;;;;;;;;;;;13.24;97.41;101228.03;5038368;28;1894;-84
2023/08/29 03:26:12;;;;;;;;;;;;;;;13.25;97.57;101224.50;5030900;28;1152;-83
2023/08/29 03:28:38;;;;;;;;;;;;;;;13.22;97.55;101218.72;5044858;28;2313;-83
2023/08/29 03:31:13;;;;;;;;;;;;;;;13.19;97.47;101216.34;5038824;28;1206;-83
2023/08/29 03:33:45;;;;;;;;;;;;;;;13.15;97.22;101213.19;5037950;28;1225;-85
2023/08/29 03:36:10;;;;;;;;;;;;;;;13.16;97.67;101212.25;5046942;28;1130;-83
2023/08/29 03:38:37;;;;;;;;;;;;;;;13.18;97.79;101210.31;5045073;28;1264;-83
2023/08/29 03:41:05;;;;;;;;;;;;;;;13.22;97.93;101203.91;5048125;28;1104;-83
2023/08/29 03:43:32;;;;;;;;;;;;;;;13.24;97.50;101207.22;5038508;28;1894;-83
2023/08/29 03:45:58;;;;;;;;;;;;;;;13.24;97.84;101191.56;5034421;28;1421;-83
2023/08/29 03:48:23;;;;;;;;;;;;;;;13.21;97.48;101194.47;5031818;28;1451;-83
2023/08/29 03:50:49;;;;;;;;;;;;;;;13.18;97.75;101192.06;5055744;28;1220;-82
2023/08/29 03:53:14;;;;;;;;;;;;;;;13.16;97.85;101193.19;5053723;28;1139;-83
2023/08/29 03:55:39;;;;;;;;;;;;;;;13.11;97.68;101190.97;5050241;28;1153;-84
2023/08/29 03:58:04;;;;;;;;;;;;;;;13.07;98.02;101189.56;5055779;28;1294;-84
2023/08/29 04:00:31;;;;;;;;;;;;;;;13.02;97.97;101186.56;5051684;28;1186;-84
2023/08/29 04:02:56;;;;;;;;;;;;;;;13.02;98.25;101187.41;5053276;28;1082;-82
2023/08/29 04:05:21;;;;;;;;;;;;;;;13.04;98.06;101179.44;5052176;28;1959;-82
2023/08/29 04:07:47;;;;;;;;;;;;;;;13.03;98.22;101183.00;5050034;28;1628;-83
2023/08/29 04:10:12;;;;;;;;;;;;;;;13.01;98.60;101179.69;5050091;28;1169;-83
2023/08/29 04:12:37;;;;;;;;;;;;;;;12.96;98.73;101179.25;5053493;28;1515;-81
2023/08/29 04:15:03;;;;;;;;;;;;;;;12.94;98.49;101176.78;5048918;28;1058;-83
2023/08/29 04:17:28;;;;;;;;;;;;;;;12.92;98.70;101175.28;5031295;28;1190;-83
2023/08/29 04:19:53;;;;;;;;;;;;;;;12.87;98.30;101161.84;5048184;28;1161;-83
2023/08/29 04:22:19;;;;;;;;;;;;;;;12.85;98.27;101163.78;5038780;28;1303;-84
2023/08/29 04:24:45;;;;;;;;;;;;;;;12.82;98.62;101156.22;5035357;28;1902;-82
2023/08/29 04:27:10;;;;;;;;;;;;;;;12.79;98.35;101139.09;5049993;28;1174;-83
2023/08/29 04:29:36;;;;;;;;;;;;;;;12.77;98.94;101144.41;5052360;28;1253;-81
2023/08/29 04:32:01;;;;;;;;;;;;;;;12.76;98.75;101140.16;5050027;28;1073;-84
2023/08/29 04:34:26;;;;;;;;;;;;;;;12.74;98.75;101142.06;5051431;28;1112;-82
2023/08/29 04:36:51;;;;;;;;;;;;;;;12.74;99.02;101147.28;5041538;28;1629;-84
2023/08/29 04:39:17;;;;;;;;;;;;;;;12.74;99.14;101152.50;5053560;28;1493;-83
2023/08/29 04:41:43;;;;;;;;;;;;;;;12.68;99.13;101153.00;5059931;28;1317;-82
2023/08/29 04:44:08;;;;;;;;;;;;;;;12.63;98.94;101160.38;5054544;28;1952;-81
2023/08/29 04:46:33;;;;;;;;;;;;;;;12.61;99.21;101162.28;5059335;28;1206;-83
2023/08/29 04:48:59;;;;;;;;;;;;;;;12.59;99.62;101152.97;5042778;28;1217;-83
2023/08/29 04:51:24;;;;;;;;;;;;;;;12.57;99.38;101144.47;5055714;28;1400;-83
2023/08/29 04:53:51;;;;;;;;;;;;;;;12.57;99.44;101145.28;5056686;28;1121;-82
2023/08/29 04:56:16;;;;;;;;;;;;;;;12.57;99.78;101147.91;5053703;28;1628;-83
2023/08/29 04:58:42;;;;;;;;;;;;;;;12.53;99.19;101154.31;5055105;28;1190;-83
2023/08/29 05:01:07;;;;;;;;;;;;;;;12.53;99.65;101149.09;5050485;28;1242;-83
2023/08/29 05:03:32;;;;;;;;;;;;;;;12.56;99.37;101148.00;5048633;28;1980;-83
2023/08/29 05:05:57;;;;;;;;;;;;;;;12.59;99.71;101148.56;5044471;28;1137;-81
2023/08/29 05:08:23;;;;;;;;;;;;;;;12.60;99.88;101155.44;5043180;28;1176;-82
2023/08/29 05:10:48;;;;;;;;;;;;;;;12.60;100.00;101154.59;5046542;28;1162;-82
2023/08/29 05:13:13;;;;;;;;;;;;;;;12.58;100.00;101152.13;5046666;28;1411;-83
2023/08/29 05:15:38;;;;;;;;;;;;;;;12.56;100.00;101148.84;5047626;28;1142;-83
2023/08/29 05:18:04;;;;;;;;;;;;;;;12.60;100.00;101160.63;5029186;28;1247;-81
2023/08/29 05:20:29;;;;;;;;;;;;;;;12.61;100.00;101156.25;5050856;28;1090;-83
2023/08/29 05:22:54;;;;;;;;;;;;;;;12.62;100.00;101153.53;5049797;28;1241;-81
2023/08/29 05:25:19;;;;;;;;;;;;;;;12.66;100.00;101154.09;5047350;28;1882;-83
2023/08/29 05:27:45;;;;;;;;;;;;;;;12.66;100.00;101154.91;5037142;28;1235;-83
2023/08/29 05:30:10;;;;;;;;;;;;;;;12.64;100.00;101154.22;5049996;28;1227;-81
2023/08/29 05:32:38;;;;;;;;;;;;;;;12.65;100.00;101153.25;5046705;28;1280;-83
2023/08/29 05:35:04;;;;;;;;;;;;;;;12.68;100.00;101158.22;5039130;28;1190;-82
2023/08/29 05:37:29;;;;;;;;;;;;;;;12.72;100.00;101164.78;5045785;28;1119;-82
2023/08/29 05:39:54;;;;;;;;;;;;;;;12.73;100.00;101158.66;5047881;28;1199;-83
2023/08/29 05:42:19;;;;;;;;;;;;;;;12.75;100.00;101159.34;5041091;28;1097;-83
2023/08/29 05:44:45;;;;;;;;;;;;;;;12.77;100.00;101157.41;5052002;28;1889;-82
2023/08/29 05:47:10;;;;;;;;;;;;;;;12.78;100.00;101158.22;5046220;28;1290;-83
2023/08/29 05:49:35;;;;;;;;;;;;;;;12.80;100.00;101150.31;5046746;28;1100;-83
2023/08/29 05:52:00;;;;;;;;;;;;;;;12.83;100.00;101160.44;5046878;28;1145;-83
2023/08/29 05:54:25;;;;;;;;;;;;;;;12.85;100.00;101158.56;5027834;28;1175;-83
2023/08/29 05:56:51;;;;;;;;;;;;;;;12.88;100.00;101153.06;5033244;28;1314;-82
2023/08/29 05:59:16;;;;;;;;;;;;;;;12.92;100.00;101151.88;5046481;28;1197;-82
2023/08/29 06:01:42;;;;;;;;;;;;;;;12.96;100.00;101155.81;5047246;28;1280;-83
2023/08/29 06:04:07;;;;;;;;;;;;;;;13.00;100.00;101152.00;5045075;28;1953;-82
2023/08/29 06:06:33;;;;;;;;;;;;;;;13.03;100.00;101159.56;5045136;28;1163;-82
2023/08/29 06:08:59;;;;;;;;;;;;;;;13.07;100.00;101160.94;5043081;28;1145;-82
2023/08/29 06:11:25;;;;;;;;;;;;;;;13.11;100.00;101164.09;5043773;28;1256;-83
2023/08/29 06:13:51;;;;;;;;;;;;;;;13.15;100.00;101155.91;5042528;28;1201;-83
2023/08/29 06:16:16;;;;;;;;;;;;;;;13.20;100.00;101150.28;5044876;28;1176;-82
2023/08/29 06:18:41;;;;;;;;;;;;;;;13.25;100.00;101154.19;5046804;28;1173;-83
2023/08/29 06:21:06;;;;;;;;;;;;;;;13.32;100.00;101156.25;5046239;28;1228;-83
2023/08/29 06:23:32;;;;;;;;;;;;;;;13.39;100.00;101162.56;5025459;28;1889;-83
2023/08/29 06:25:57;;;;;;;;;;;;;;;13.43;100.00;101158.72;5029291;28;1487;-82
2023/08/29 06:28:22;;;;;;;;;;;;;;;13.47;100.00;101162.69;5044604;28;1291;-82
2023/08/29 06:30:48;;;;;;;;;;;;;;;13.53;100.00;101164.75;5050827;28;1325;-81
2023/08/29 06:33:13;;;;;;;;;;;;;;;13.61;100.00;101162.31;5046401;28;1415;-82
2023/08/29 06:35:38;;;;;;;;;;;;;;;13.69;100.00;101170.25;5031513;28;1222;-82
2023/08/29 06:38:03;;;;;;;;;;;;;;;13.75;100.00;101159.28;5046481;28;1268;-82
2023/08/29 06:40:29;;;;;;;;;;;;;;;13.80;100.00;101162.28;5035296;28;1192;-82
2023/08/29 06:42:54;;;;;;;;;;;;;;;13.86;100.00;101165.31;5046317;28;1184;-82
2023/08/29 06:45:19;;;;;;;;;;;;;;;13.90;100.00;101159.69;5043008;28;1902;-82
2023/08/29 06:47:44;;;;;;;;;;;;;;;13.96;100.00;101155.72;5043318;28;1109;-81
2023/08/29 06:50:09;;;;;;;;;;;;;;;14.02;100.00;101150.75;5047518;28;1153;-81
2023/08/29 06:52:35;;;;;;;;;;;;;;;14.10;100.00;101142.22;5046001;28;1696;-82
2023/08/29 06:55:01;;;;;;;;;;;;;;;14.16;100.00;101152.09;5046339;28;1101;-82
2023/08/29 06:57:27;;;;;;;;;;;;;;;14.22;100.00;101151.56;5029698;28;1467;-81
2023/08/29 06:59:52;;;;;;;;;;;;;;;14.30;100.00;101164.72;5047114;28;1141;-81
2023/08/29 07:02:18;;;;;;;;;;;;;;;14.36;100.00;101163.31;5045636;28;1057;-81
2023/08/29 07:04:43;;;;;;;;;;;;;;;14.40;100.00;101154.25;5046384;28;1969;-81
2023/08/29 07:07:08;;;;;;;;;;;;;;;14.45;100.00;101161.63;5046519;28;1401;-81
2023/08/29 07:09:34;;;;;;;;;;;;;;;14.47;100.00;101154.53;5042354;28;1206;-82
2023/08/29 07:11:59;;;;;;;;;;;;;;;14.51;100.00;101161.13;5047444;28;1026;-81
2023/08/29 07:14:24;;;;;;;;;;;;;;;14.52;100.00;101158.38;5049989;28;1226;-82
2023/08/29 07:16:49;;;;;;;;;;;;;;;14.55;100.00;101157.25;5046427;28;1309;-82
2023/08/29 07:19:14;;;;;;;;;;;;;;;14.57;100.00;101160.56;5042290;28;1451;-82
2023/08/29 07:21:40;;;;;;;;;;;;;;;14.60;100.00;101170.69;5030695;28;1228;-81
2023/08/29 07:24:05;;;;;;;;;;;;;;;14.61;100.00;101154.06;5045888;28;1894;-82
2023/08/29 07:26:30;;;;;;;;;;;;;;;14.62;100.00;101158.31;5027508;28;1244;-82
2023/08/29 07:28:56;;;;;;;;;;;;;;;14.65;100.00;101158.03;5043757;28;1118;-81
2023/08/29 07:31:22;;;;;;;;;;;;;;;14.70;100.00;101155.00;5054106;28;1447;-82
2023/08/29 07:33:47;;;;;;;;;;;;;;;14.74;100.00;101146.75;5036026;28;1223;-82
2023/08/29 07:36:12;;;;;;;;;;;;;;;14.81;100.00;101147.81;5047012;28;1452;-82
2023/08/29 07:38:38;;;;;;;;;;;;;;;14.87;100.00;101147.22;5035811;28;1624;-82
2023/08/29 07:41:03;;;;;;;;;;;;;;;14.95;100.00;101154.31;5047590;28;1083;-81
2023/08/29 07:43:31;;;;;;;;;;;;;;;15.01;100.00;101152.91;5040120;28;1225;-82
2023/08/29 07:45:58;;;;;;;;;;;;;;;15.08;100.00;101159.19;5047043;28;1989;-82
2023/08/29 07:48:23;;;;;;;;;;;;;;;15.12;100.00;101156.16;5045377;28;1135;-82
2023/08/29 07:50:48;;;;;;;;;;;;;;;15.16;100.00;101161.09;5046256;28;1053;-81
2023/08/29 07:53:14;;;;;;;;;;;;;;;15.19;100.00;101155.56;5045939;28;1111;-81
2023/08/29 07:55:41;;;;;;;;;;;;;;;15.22;100.00;101150.88;5046049;28;1135;-81
2023/08/29 07:58:06;;;;;;;;;;;;;;;15.27;100.00;101153.88;5029567;28;1238;-82
2023/08/29 08:00:32;;;;;;;;;;;;;;;15.34;100.00;101154.09;5045274;28;1133;-81
2023/08/29 08:02:57;;;;;;;;;;;;;;;15.40;100.00;101159.56;5032486;28;1186;-82
2023/08/29 08:05:23;;;;;;;;;;;;;;;15.45;100.00;101159.09;5047602;28;1894;-82
2023/08/29 08:07:48;;;;;;;;;;;;;;;15.51;100.00;101160.31;5044552;28;1102;-82
2023/08/29 08:10:17;;;;;;;;;;;;;;;15.57;100.00;101154.47;5047544;28;1090;-82
2023/08/29 08:12:43;;;;;;;;;;;;;;;15.60;100.00;101162.03;5040738;28;1254;-81
2023/08/29 08:15:08;;;;;;;;;;;;;;;15.65;100.00;101162.41;5030305;28;1394;-82
2023/08/29 08:17:34;;;;;;;;;;;;;;;15.71;100.00;101153.16;5045074;28;1086;-80
2023/08/29 08:19:59;;;;;;;;;;;;;;;15.75;99.71;101163.16;5045254;28;1423;-82
2023/08/29 08:22:27;;;;;;;;;;;;;;;15.81;99.86;101156.50;5044028;28;1134;-81
2023/08/29 08:24:52;;;;;;;;;;;;;;;15.84;99.59;101162.28;5043839;28;1961;-82
2023/08/29 08:27:18;;;;;;;;;;;;;;;15.86;99.29;101170.78;5028932;28;1228;-82
2023/08/29 08:29:44;;;;;;;;;;;;;;;15.92;99.04;101164.94;5025531;28;1445;-81
2023/08/29 08:32:09;;;;;;;;;;;;;;;15.99;98.80;101164.34;5045413;28;1117;-82
2023/08/29 08:34:34;;;;;;;;;;;;;;;16.04;98.44;101154.22;5029931;28;1252;-82
2023/08/29 08:36:59;;;;;;;;;;;;;;;16.07;97.77;101156.56;5048772;28;1286;-81
2023/08/29 08:39:25;;;;;;;;;;;;;;;16.10;97.81;101171.94;5038122;28;1457;-80
2023/08/29 08:41:51;;;;;;;;;;;;;;;16.15;97.57;101159.22;5051367;28;1090;-82
2023/08/29 08:44:17;;;;;;;;;;;;;;;16.18;97.47;101164.16;5049998;28;1882;-82
2023/08/29 08:46:43;;;;;;;;;;;;;;;16.25;97.02;101159.94;5050210;28;1118;-82
2023/08/29 08:49:08;;;;;;;;;;;;;;;16.33;96.89;101162.59;5045068;28;1221;-81
2023/08/29 08:51:36;;;;;;;;;;;;;;;16.46;96.78;101165.66;5044456;28;1203;-81
2023/08/29 08:54:01;;;;;;;;;;;;;;;16.62;96.60;101162.28;5048083;28;1146;-81
2023/08/29 08:56:27;;;;;;;;;;;;;;;16.73;95.85;101163.84;5048892;28;1270;-81
2023/08/29 08:58:53;;;;;;;;;;;;;;;16.81;95.87;101165.69;5048509;28;1193;-81
2023/08/29 09:01:18;;;;;;;;;;;;;;;16.87;95.68;101170.28;5046746;28;1188;-81
2023/08/29 09:03:44;;;;;;;;;;;;;;;16.94;94.52;101161.63;5037967;28;1961;-82
2023/08/29 09:06:09;;;;;;;;;;;;;;;16.99;94.70;101154.13;5035043;28;1254;-82
2023/08/29 09:08:34;;;;;;;;;;;;;;;17.14;94.42;101156.13;5045650;28;1169;-83
2023/08/29 09:11:01;;;;;;;;;;;;;;;17.27;94.13;101159.13;5027309;28;1426;-82
2023/08/29 09:13:26;;;;;;;;;;;;;;;17.36;93.86;101159.94;5018116;28;1212;-82
2023/08/29 09:15:51;;;;;;;;;;;;;;;17.37;93.16;101162.41;5048914;28;1165;-82
2023/08/29 09:18:24;;;;;;;;;;;;;;;17.43;93.05;101163.56;5049676;28;1488;-82
2023/08/29 09:20:50;;;;;;;;;;;;;;;17.43;92.06;101161.78;5044143;28;1440;-82
2023/08/29 09:23:25;;;;;;;;;;;;;;;17.46;92.35;101169.31;5048367;28;1154;-82
2023/08/29 09:25:57;;;;;;;;;;;;;;;17.46;91.99;101169.31;5044327;28;1894;-81
2023/08/29 09:28:27;;;;;;;;;;;;;;;17.47;91.76;101172.75;5047915;28;1303;-79
2023/08/29 09:30:52;;;;;;;;;;;;;;;17.52;91.54;101166.03;5050753;28;1273;-81
2023/08/29 09:33:21;;;;;;;;;;;;;;;17.57;91.48;101172.59;5049636;28;1020;-81
2023/08/29 09:35:47;;;;;;;;;;;;;;;17.61;91.53;101166.88;5031578;28;1171;-82
2023/08/29 09:38:12;;;;;;;;;;;;;;;17.68;90.79;101169.66;5048208;28;1060;-82
2023/08/29 09:40:47;;;;;;;;;;;;;;;17.71;90.80;101171.94;5048228;28;1037;-82
2023/08/29 09:43:13;;;;;;;;;;;;;;;17.79;90.61;101166.75;5026911;28;1267;-81
2023/08/29 09:45:38;;;;;;;;;;;;;;;17.88;90.40;101168.38;5047171;28;1901;-82
2023/08/29 09:48:06;;;;;;;;;;;;;;;18.01;90.03;101160.84;5045918;28;1072;-81
2023/08/29 09:50:32;;;;;;;;;;;;;;;18.10;89.43;101163.44;5033489;28;1187;-82
2023/08/29 09:52:58;;;;;;;;;;;;;;;18.15;89.04;101150.66;5036849;28;1204;-82
2023/08/29 09:55:25;;;;;;;;;;;;;;;18.21;88.63;101144.72;5046115;28;1196;-79
2023/08/29 09:57:52;;;;;;;;;;;;;;;18.11;87.43;101149.31;5044874;28;1061;-82
2023/08/29 10:00:19;;;;;;;;;;;;;;;18.04;87.22;101139.50;5047649;28;1437;-82
2023/08/29 10:02:46;;;;;;;;;;;;;;;18.11;87.34;101146.69;5051604;28;1231;-82
2023/08/29 10:05:12;;;;;;;;;;;;;;;18.10;87.53;101140.63;5029981;28;1967;-81
2023/08/29 10:07:39;;;;;;;;;;;;;;;18.12;87.11;101145.72;5045729;28;1101;-82
2023/08/29 10:10:06;;;;;;;;;;;;;;;18.09;86.95;101136.38;5051407;28;1510;-80
2023/08/29 10:12:32;;;;;;;;;;;;;;;18.10;86.73;101137.19;5049182;28;1153;-81
2023/08/29 10:14:57;;;;;;;;;;;;;;;18.08;85.58;101133.94;5038495;28;1434;-81
2023/08/29 10:17:24;;;;;;;;;;;;;;;18.04;84.73;101136.06;5052206;28;1180;-82
2023/08/29 10:19:50;;;;;;;;;;;;;;;17.99;85.21;101141.78;5043971;28;1217;-80
2023/08/29 10:22:16;;;;;;;;;;;;;;;18.05;85.29;101145.56;5040637;28;1166;-81
2023/08/29 10:24:43;;;;;;;;;;;;;;;18.00;80.61;101146.06;5045495;28;1893;-82
2023/08/29 10:27:10;;;;;;;;;;;;;;;17.96;83.91;101146.56;5030234;28;1337;-82
2023/08/29 10:29:35;;;;;;;;;;;;;;;17.97;84.53;101143.78;5028799;28;1411;-83
2023/08/29 10:32:01;;;;;;;;;;;;;;;18.00;84.47;101140.81;5046578;28;1283;-82
2023/08/29 10:34:27;;;;;;;;;;;;;;;17.99;84.37;101131.28;5045850;28;1494;-81
2023/08/29 10:36:52;;;;;;;;;;;;;;;18.03;84.45;101135.25;5047776;28;1091;-81
2023/08/29 10:39:19;;;;;;;;;;;;;;;18.07;84.33;101127.88;5046186;28;1497;-80
2023/08/29 10:41:45;;;;;;;;;;;;;;;18.11;84.36;101133.56;5054790;28;1359;-80
2023/08/29 10:44:29;;;;;;;;;;;;;;;18.15;84.49;101140.16;5039016;28;1902;-82
2023/08/29 10:47:12;;;;;;;;;;;;;;;18.19;84.50;101137.03;5046014;28;1216;-82
2023/08/29 10:49:41;;;;;;;;;;;;;;;18.22;84.38;101135.84;5044308;28;1307;-82
2023/08/29 10:52:10;;;;;;;;;;;;;;;18.24;84.29;101136.53;5041304;28;1081;-83
2023/08/29 10:54:36;;;;;;;;;;;;;;;18.24;84.20;101134.72;5043681;28;1361;-82
2023/08/29 10:57:01;;;;;;;;;;;;;;;18.28;84.39;101135.19;5047273;28;1118;-82
2023/08/29 10:59:32;;;;;;;;;;;;;;;18.28;84.43;101124.69;5034554;28;1271;-82
2023/08/29 11:02:16;;;;;;;;;;;;;;;18.28;84.09;101129.94;5042052;28;1320;-81
2023/08/29 11:04:41;;;;;;;;;;;;;;;18.28;84.04;101129.94;5050593;28;1902;-82
2023/08/29 11:07:08;;;;;;;;;;;;;;;18.30;83.92;101128.78;5044665;28;1121;-83
2023/08/29 11:09:34;;;;;;;;;;;;;;;18.32;83.73;101136.50;5030451;28;1482;-82
2023/08/29 11:12:06;;;;;;;;;;;;;;;18.34;83.54;101128.44;5045088;28;1243;-82
2023/08/29 11:14:51;;;;;;;;;;;;;;;18.34;83.44;101120.56;5023401;28;1456;-83
2023/08/29 11:17:22;;;;;;;;;;;;;;;18.38;83.24;101109.56;5050671;28;1197;-82
2023/08/29 11:19:48;;;;;;;;;;;;;;;18.38;83.03;101109.56;5047733;28;1154;-83
2023/08/29 11:22:15;;;;;;;;;;;;;;;18.40;82.48;101107.56;5048387;28;1270;-82
2023/08/29 11:24:41;;;;;;;;;;;;;;;18.40;82.03;101112.81;5048007;28;1897;-82
2023/08/29 11:27:06;;;;;;;;;;;;;;;18.42;81.96;101110.88;5031874;28;1427;-82
2023/08/29 11:29:34;;;;;;;;;;;;;;;18.46;81.91;101114.78;5043759;28;1201;-82
2023/08/29 11:32:00;;;;;;;;;;;;;;;18.56;81.98;101107.53;5047052;28;1240;-81
2023/08/29 11:34:25;;;;;;;;;;;;;;;18.65;81.67;101115.38;5018140;28;1104;-82
2023/08/29 11:36:50;;;;;;;;;;;;;;;18.68;81.19;101104.53;5034595;28;1342;-81
2023/08/29 11:39:19;;;;;;;;;;;;;;;18.72;81.13;101111.94;5041886;28;1417;-82
2023/08/29 11:41:44;;;;;;;;;;;;;;;18.75;79.99;101110.75;5046302;28;1176;-81
2023/08/29 11:44:10;;;;;;;;;;;;;;;18.82;80.38;101104.66;5047196;28;1890;-81
2023/08/29 11:46:35;;;;;;;;;;;;;;;18.94;80.46;101104.28;5040100;28;1247;-82
2023/08/29 11:49:00;;;;;;;;;;;;;;;18.98;80.33;101101.13;5046588;28;1032;-83
2023/08/29 11:51:26;;;;;;;;;;;;;;;19.08;79.22;101100.88;5046471;28;1096;-81
2023/08/29 11:53:52;;;;;;;;;;;;;;;19.19;79.16;101097.03;5029583;28;1236;-81
2023/08/29 11:56:17;;;;;;;;;;;;;;;19.32;78.54;101097.25;5040553;28;1205;-82
2023/08/29 11:58:42;;;;;;;;;;;;;;;19.43;78.50;101098.66;5051888;28;1254;-82
2023/08/29 12:01:08;;;;;;;;;;;;;;;19.54;77.91;101095.63;5036894;28;1265;-81
2023/08/29 12:03:37;;;;;;;;;;;;;;;19.57;77.29;101101.34;5034387;28;1307;-82
2023/08/29 12:06:04;;;;;;;;;;;;;;;19.65;77.20;101091.78;5032286;28;1898;-82
2023/08/29 12:08:34;;;;;;;;;;;;;;;19.75;76.40;101092.34;5029513;28;1348;-80
2023/08/29 12:10:59;;;;;;;;;;;;;;;19.77;76.41;101085.91;5044054;28;1141;-81
2023/08/29 12:13:24;;;;;;;;;;;;;;;19.80;76.36;101087.38;5047738;28;1410;-83
2023/08/29 12:15:50;;;;;;;;;;;;;;;19.79;76.98;101088.38;5052460;28;1264;-82
2023/08/29 12:18:25;;;;;;;;;;;;;;;19.76;76.05;101083.47;5048800;28;1294;-82
2023/08/29 12:20:51;;;;;;;;;;;;;;;19.66;76.48;101083.69;5036617;28;1534;-81
2023/08/29 12:23:23;;;;;;;;;;;;;;;19.66;76.52;101077.63;5045943;28;1224;-83
2023/08/29 12:25:48;;;;;;;;;;;;;;;19.69;76.25;101079.91;5030123;28;1902;-83
2023/08/29 12:28:13;;;;;;;;;;;;;;;19.71;75.98;101075.28;5052291;28;1130;-83
2023/08/29 12:30:38;;;;;;;;;;;;;;;19.60;71.91;101074.69;5044356;28;1280;-83
2023/08/29 12:33:04;;;;;;;;;;;;;;;19.51;75.15;101073.13;5045869;28;1339;-83
2023/08/29 12:35:29;;;;;;;;;;;;;;;19.52;75.11;101066.88;5031985;28;1156;-83
2023/08/29 12:37:54;;;;;;;;;;;;;;;19.60;75.27;101069.44;5049261;28;1087;-83
2023/08/29 12:40:20;;;;;;;;;;;;;;;19.68;75.49;101070.38;5046942;28;1192;-83